EDT,Max TemperatureF,Mean TemperatureF,Min TemperatureF,Max Dew PointF,MeanDew PointF,Min DewpointF,Max Humidity, Mean Humidity, Min Humidity, Max Sea Level PressureIn, Mean Sea Level PressureIn, Min Sea Level PressureIn, Max VisibilityMiles, Mean VisibilityMiles, Min VisibilityMiles, Max Wind SpeedMPH, Mean Wind SpeedMPH, Max Gust SpeedMPH,PrecipitationIn, CloudCover, Events, WindDirDegrees
2013-4-1,69,52,36,46,38,28,100,67,32,30.03,29.86,29.78,10,7,0,20,5,31,0.00,3,Fog,293
2013-4-2,54,40,27,30,16,10,87,40,17,30.22,30.12,30.04,10,10,10,20,7,28,0.00,0,,311
2013-4-3,56,40,24,22,16,10,81,40,17,30.43,30.30,30.23,10,10,10,20,6,26,0.00,0,,322
2013-4-4,50,36,23,38,21,14,99,56,25,30.47,30.35,30.13,10,9,2,9,3,17,0.19,2,Rain-Snow,119
2013-4-5,66,52,37,40,34,23,100,61,25,30.11,29.97,29.87,10,8,2,16,5,23,0.45,3,Rain,337
2013-4-6,57,47,37,32,23,17,63,39,21,30.38,30.28,30.09,10,8,3,16,9,24,0.00,0,,52
2013-4-7,73,54,35,41,35,32,87,51,28,30.33,30.19,30.04,10,10,10,16,7,23,0.00,0,,184
2013-4-8,82,66,50,50,45,41,74,44,25,30.13,30.06,30.00,10,10,7,13,4,22,0.00,0,,201
2013-4-9,87,74,61,53,51,50,69,43,28,30.13,30.06,29.99,10,10,10,13,5,18,0.00,0,,213
2013-4-10,91,78,66,56,53,50,69,41,25,30.04,29.95,29.84,10,10,10,13,6,22,0.00,0,,213
2013-4-11,88,74,59,60,56,51,86,53,29,29.92,29.86,29.78,10,10,10,16,6,20,0.00,0,,192
2013-4-12,80,68,56,68,59,51,100,79,41,29.82,29.70,29.60,10,8,1,16,6,23,0.93,6,Rain-Thunderstorm,173
2013-4-13,71,56,40,51,42,35,98,60,26,29.99,29.92,29.77,10,10,7,24,7,34,0.00,1,,262
2013-4-14,70,54,37,46,41,36,99,62,32,30.18,30.11,30.00,10,10,5,10,4,16,0.00,0,,61
2013-4-15,63,58,52,53,50,43,98,73,57,30.33,30.25,30.15,10,10,7,17,4,23,0.03,7,Rain,100
2013-4-16,77,64,52,59,56,52,98,73,48,30.35,30.27,30.18,10,10,5,12,4,21,0.00,5,,169
2013-4-17,82,70,58,62,59,57,98,71,45,30.26,30.21,30.17,10,10,10,13,4,23,0.00,1,Rain,70
2013-4-18,80,70,60,64,59,55,99,75,43,30.25,30.18,30.05,10,8,2,14,6,23,0.11,6,Rain,138
2013-4-19,80,68,55,66,63,54,97,78,56,30.04,29.84,29.64,10,10,3,17,9,36,0.51,6,Rain-Thunderstorm,180
2013-4-20,63,54,45,53,35,27,96,53,26,30.37,30.10,29.81,10,10,10,16,6,22,0.04,1,Rain,323
2013-4-21,55,45,35,33,28,23,91,48,28,30.63,30.56,30.39,10,10,10,10,5,20,0.00,0,,37
2013-4-22,57,44,31,40,36,31,100,70,47,30.61,30.52,30.43,10,10,10,16,4,22,0.00,5,,61
2013-4-23,61,52,42,46,43,40,98,75,56,30.43,30.29,30.17,10,9,4,10,5,,0.00,5,,33
2013-4-24,79,59,39,56,49,39,100,69,36,30.17,30.03,29.87,10,8,2,20,4,31,0.00,1,,194
2013-4-25,66,54,42,51,36,26,88,50,22,30.34,30.25,30.04,10,10,10,21,10,34,0.00,2,Rain,350
2013-4-26,68,52,36,44,38,34,100,59,29,30.50,30.43,30.36,10,10,7,13,4,18,0.00,1,,336
2013-4-27,72,58,43,48,42,39,99,60,31,30.46,30.39,30.33,10,10,5,13,2,21,0.00,0,,125
2013-4-28,64,52,40,52,45,38,99,71,38,30.34,30.27,30.18,10,10,5,8,2,,0.00,5,Rain,145
2013-4-29,61,57,53,60,56,51,100,98,86,30.21,30.12,30.07,10,5,2,14,4,18,0.46,8,Rain,98
2013-4-30,60,58,55,59,57,54,100,98,92,30.31,30.21,30.12,10,6,1,12,5,,0.07,8,Rain,36